createdAt,value
2024-01-05T00:01:16.082Z,92.91
2024-01-05T00:03:42.953Z,92.82
2024-01-05T00:06:12.375Z,92.98
2024-01-05T00:08:39.154Z,91.98
2024-01-05T00:11:05.988Z,92.50
2024-01-05T00:13:32.832Z,92.17
2024-01-05T00:15:59.680Z,92.58
2024-01-05T00:18:28.149Z,92.59
2024-01-05T00:20:55.018Z,92.57
2024-01-05T00:23:21.989Z,92.18
2024-01-05T00:25:48.724Z,92.07
2024-01-05T00:28:15.537Z,91.92
2024-01-05T00:30:42.481Z,91.81
2024-01-05T00:33:09.451Z,92.03
2024-01-05T00:35:36.244Z,91.79
2024-01-05T00:38:05.532Z,91.73
2024-01-05T00:40:32.258Z,92.22
2024-01-05T00:42:59.072Z,92.12
2024-01-05T00:45:26.177Z,92.46
2024-01-05T00:47:53.711Z,92.50
2024-01-05T00:50:20.565Z,92.53
2024-01-05T00:52:47.321Z,92.38
2024-01-05T00:55:14.165Z,92.49
2024-01-05T00:57:40.963Z,92.45
2024-01-05T01:00:09.963Z,92.78
2024-01-05T01:02:38.218Z,92.15
2024-01-05T01:05:05.628Z,92.23
2024-01-05T01:07:32.586Z,92.14
2024-01-05T01:09:59.341Z,92.63
2024-01-05T01:12:27.373Z,92.44
2024-01-05T01:14:54.464Z,92.87
2024-01-05T01:17:23.430Z,92.86
2024-01-05T01:19:50.459Z,93.18
2024-01-05T01:22:17.260Z,93.65
2024-01-05T01:24:44.458Z,93.09
2024-01-05T01:27:11.327Z,93.24
2024-01-05T01:29:38.118Z,93.76
2024-01-05T01:32:05.114Z,93.87
2024-01-05T01:34:32.025Z,94.10
2024-01-05T01:36:58.832Z,93.88
2024-01-05T01:39:27.955Z,94.04
2024-01-05T01:41:54.811Z,94.17
2024-01-05T01:44:21.685Z,94.71
2024-01-05T01:46:49.017Z,94.05
2024-01-05T01:49:15.854Z,94.58
2024-01-05T01:51:42.940Z,94.18
2024-01-05T01:54:09.851Z,93.84
2024-01-05T01:56:37.894Z,94.21
2024-01-05T01:59:06.692Z,93.92
2024-01-05T02:01:33.919Z,95.13
2024-01-05T02:04:01.386Z,95.23
2024-01-05T02:06:28.483Z,95.06
2024-01-05T02:08:56.945Z,95.02
2024-01-05T02:11:23.681Z,95.31
2024-01-05T02:13:50.597Z,94.51
2024-01-05T02:16:17.528Z,93.57
2024-01-05T02:19:04.489Z,93.05
2024-01-05T02:21:34.652Z,92.58
2024-01-05T02:24:01.684Z,92.33
2024-01-05T02:26:28.567Z,92.26
2024-01-05T02:28:55.363Z,91.70
2024-01-05T02:31:22.350Z,92.12
2024-01-05T02:33:49.259Z,91.75
2024-01-05T02:36:16.300Z,91.27
2024-01-05T02:38:43.119Z,91.30
2024-01-05T02:41:11.051Z,91.58
2024-01-05T02:43:37.921Z,91.62
2024-01-05T02:46:04.879Z,91.13
2024-01-05T02:48:31.760Z,91.25
2024-01-05T02:50:58.663Z,91.22
2024-01-05T02:53:25.476Z,91.11
2024-01-05T02:55:52.256Z,90.27
2024-01-05T02:58:19.092Z,90.64
2024-01-05T03:00:46.083Z,89.95
2024-01-05T03:03:13.150Z,90.25
2024-01-05T03:05:40.269Z,90.12
2024-01-05T03:08:07.564Z,90.33
2024-01-05T03:10:34.486Z,89.60
2024-01-05T03:13:01.296Z,89.90
2024-01-05T03:15:28.137Z,90.23
2024-01-05T03:17:55.144Z,89.85
2024-01-05T03:20:24.011Z,89.52
2024-01-05T03:22:50.769Z,89.94
2024-01-05T03:25:17.633Z,89.03
2024-01-05T03:27:48.276Z,88.68
2024-01-05T03:30:15.325Z,88.01
2024-01-05T03:32:43.296Z,88.86
2024-01-05T03:35:10.118Z,89.38
2024-01-05T03:37:37.206Z,89.80
2024-01-05T03:40:04.176Z,89.30
2024-01-05T03:42:31.250Z,89.07
2024-01-05T03:44:58.136Z,89.68
2024-01-05T03:47:24.902Z,90.48
2024-01-05T03:49:51.866Z,90.47
2024-01-05T03:52:18.700Z,89.53
2024-01-05T03:54:45.504Z,88.71
2024-01-05T03:57:12.284Z,91.05
2024-01-05T03:59:39.052Z,92.53
2024-01-05T04:02:06.017Z,93.14
2024-01-05T04:04:32.865Z,92.35
2024-01-05T04:06:59.760Z,92.25
2024-01-05T04:09:26.846Z,91.26
2024-01-05T04:11:53.693Z,91.48
2024-01-05T04:14:20.458Z,91.31
2024-01-05T04:16:47.465Z,92.88
2024-01-05T04:19:14.519Z,93.17
2024-01-05T04:21:41.869Z,92.68
2024-01-05T04:24:08.998Z,92.81
2024-01-05T04:26:36.964Z,93.58
2024-01-05T04:29:03.951Z,93.74
2024-01-05T04:31:30.766Z,93.61
2024-01-05T04:33:57.905Z,94.10
2024-01-05T04:36:24.752Z,93.92
2024-01-05T04:38:51.554Z,93.13
2024-01-05T04:41:19.204Z,92.34
2024-01-05T04:43:47.189Z,91.86
2024-01-05T04:46:14.069Z,91.61
2024-01-05T04:48:41.045Z,91.85
2024-01-05T04:51:08.026Z,91.68
2024-01-05T04:53:34.833Z,91.76
2024-01-05T04:56:01.656Z,91.80
2024-01-05T04:58:28.568Z,92.14
2024-01-05T05:00:55.635Z,93.37
2024-01-05T05:03:22.783Z,93.47
2024-01-05T05:05:49.832Z,93.77
2024-01-05T05:08:17.749Z,93.57
2024-01-05T05:10:44.567Z,93.32
2024-01-05T05:13:11.495Z,93.39
2024-01-05T05:15:39.392Z,93.17
2024-01-05T05:18:06.597Z,93.76
2024-01-05T05:20:34.184Z,93.23
2024-01-05T05:23:01.143Z,93.82
2024-01-05T05:25:27.926Z,94.46
2024-01-05T05:27:54.725Z,94.31
2024-01-05T05:30:21.613Z,95.31
2024-01-05T05:32:48.576Z,95.49
2024-01-05T05:35:15.491Z,95.75
2024-01-05T05:37:42.228Z,95.63
2024-01-05T05:40:10.404Z,95.78
2024-01-05T05:42:37.436Z,96.79
2024-01-05T05:45:04.486Z,95.87
2024-01-05T05:47:32.507Z,95.48
2024-01-05T05:49:59.266Z,95.44
2024-01-05T05:52:29.854Z,95.27
2024-01-05T05:54:57.899Z,95.22
2024-01-05T05:57:24.763Z,95.07
2024-01-05T05:59:52.978Z,95.02
2024-01-05T06:02:20.243Z,94.96
2024-01-05T06:04:47.287Z,94.79
2024-01-05T06:07:14.502Z,95.58
2024-01-05T06:09:43.986Z,95.46
2024-01-05T06:12:11.310Z,95.14
2024-01-05T06:14:39.373Z,95.63
2024-01-05T06:17:06.201Z,95.39
2024-01-05T06:19:33.068Z,95.58
2024-01-05T06:22:01.204Z,95.30
2024-01-05T06:24:29.428Z,95.48
2024-01-05T06:26:56.278Z,94.89
2024-01-05T06:29:23.037Z,94.96
2024-01-05T06:31:50.019Z,95.05
2024-01-05T06:34:17.130Z,94.41
2024-01-05T06:36:44.354Z,95.08
2024-01-05T06:39:11.252Z,94.41
2024-01-05T06:41:38.098Z,93.49
2024-01-05T06:44:05.850Z,92.82
2024-01-05T06:46:32.583Z,93.03
2024-01-05T06:48:59.665Z,93.35
2024-01-05T06:51:31.094Z,93.81
2024-01-05T06:53:59.100Z,93.46
2024-01-05T06:56:29.103Z,93.16
2024-01-05T06:58:56.696Z,94.00
2024-01-05T07:01:24.271Z,94.57
2024-01-05T07:03:51.166Z,94.77
2024-01-05T07:06:18.104Z,95.03
2024-01-05T07:08:44.875Z,95.31
2024-01-05T07:11:23.377Z,94.92
2024-01-05T07:13:50.549Z,94.40
2024-01-05T07:16:21.545Z,94.28
2024-01-05T07:18:49.248Z,94.34
2024-01-05T07:21:17.182Z,94.79
2024-01-05T07:23:44.410Z,95.37
2024-01-05T07:26:11.274Z,96.15
2024-01-05T07:28:38.825Z,95.41
2024-01-05T07:31:09.739Z,95.50
2024-01-05T07:33:43.664Z,95.29
2024-01-05T07:36:10.469Z,96.25
2024-01-05T07:38:37.330Z,96.40
2024-01-05T07:41:04.465Z,95.99
2024-01-05T07:43:31.595Z,96.43
2024-01-05T07:45:58.411Z,95.75
2024-01-05T07:48:26.979Z,96.03
2024-01-05T07:50:53.756Z,95.65
2024-01-05T07:53:20.489Z,96.28
2024-01-05T07:55:47.345Z,96.19
2024-01-05T07:58:14.371Z,96.26
2024-01-05T08:00:41.265Z,96.28
2024-01-05T08:03:08.339Z,96.30
2024-01-05T08:05:35.250Z,97.43
2024-01-05T08:08:01.955Z,96.64
2024-01-05T08:10:28.765Z,97.05
2024-01-05T08:12:55.606Z,97.02
2024-01-05T08:15:22.535Z,96.43
2024-01-05T08:18:04.198Z,96.33
2024-01-05T08:20:33.842Z,96.67
2024-01-05T08:23:01.563Z,96.79
2024-01-05T08:25:28.270Z,97.08
2024-01-05T08:27:54.987Z,96.89
2024-01-05T08:30:22.599Z,96.68
2024-01-05T08:32:53.389Z,96.42
2024-01-05T08:35:20.234Z,97.05
2024-01-05T08:37:47.021Z,97.71
2024-01-05T08:40:13.949Z,97.21
2024-01-05T08:42:42.280Z,97.33
2024-01-05T08:45:09.655Z,96.96
2024-01-05T08:47:45.104Z,96.48
2024-01-05T08:50:11.965Z,96.49
2024-01-05T08:52:38.673Z,96.58
2024-01-05T08:55:06.230Z,96.26
2024-01-05T08:57:33.066Z,96.83
2024-01-05T08:59:59.900Z,97.75
2024-01-05T09:02:27.402Z,98.12
2024-01-05T09:04:54.280Z,98.49
2024-01-05T09:07:21.272Z,98.68
2024-01-05T09:09:48.183Z,98.75
2024-01-05T09:12:15.299Z,98.51
2024-01-05T09:14:44.411Z,98.75
2024-01-05T09:17:11.116Z,98.20
2024-01-05T09:19:38.078Z,97.92
2024-01-05T09:22:04.978Z,97.22
2024-01-05T09:24:32.717Z,97.14
2024-01-05T09:27:01.625Z,97.63
2024-01-05T09:29:28.486Z,97.38
2024-01-05T09:31:55.281Z,98.29
2024-01-05T09:34:22.195Z,98.48
2024-01-05T09:36:49.364Z,98.21
2024-01-05T09:39:36.167Z,97.63
2024-01-05T09:42:23.449Z,97.75
2024-01-05T09:45:12.071Z,97.69
2024-01-05T09:47:59.358Z,97.97
2024-01-05T09:50:54.320Z,98.60
2024-01-05T09:53:41.010Z,98.27
2024-01-05T09:56:28.348Z,98.33
2024-01-05T09:59:18.510Z,98.28
2024-01-05T10:02:10.306Z,98.40
2024-01-05T10:04:57.119Z,98.42
2024-01-05T10:07:44.645Z,98.20
2024-01-05T10:11:03.042Z,98.65
2024-01-05T10:13:56.987Z,97.77
2024-01-05T10:16:45.066Z,97.43
2024-01-05T10:19:32.293Z,97.36
2024-01-05T10:22:20.849Z,97.26
2024-01-05T10:25:18.015Z,97.32
2024-01-05T10:28:39.047Z,97.69
2024-01-05T10:31:25.802Z,97.92
2024-01-05T10:34:12.842Z,97.77
2024-01-05T10:37:06.223Z,97.93
2024-01-05T10:39:53.803Z,98.03
2024-01-05T10:42:40.705Z,98.00
2024-01-05T10:45:27.801Z,98.44
2024-01-05T10:48:15.501Z,98.08
2024-01-05T10:51:03.095Z,98.61
2024-01-05T10:53:50.829Z,98.19
2024-01-05T10:56:40.127Z,98.19
2024-01-05T10:59:26.866Z,97.78
2024-01-05T11:02:36.154Z,97.89
2024-01-05T11:05:24.377Z,98.26
2024-01-05T11:08:30.145Z,99.45
2024-01-05T11:11:25.761Z,99.06
2024-01-05T11:14:23.322Z,99.58
2024-01-05T11:17:15.875Z,99.26
2024-01-05T11:20:31.918Z,99.44
2024-01-05T11:23:20.779Z,98.66
2024-01-05T11:26:09.702Z,98.33
2024-01-05T11:28:56.356Z,98.23
2024-01-05T11:31:49.200Z,97.98
2024-01-05T11:34:37.568Z,97.91
2024-01-05T11:37:32.107Z,98.44
2024-01-05T11:40:34.143Z,99.21
2024-01-05T11:43:34.567Z,98.51
2024-01-05T11:46:25.553Z,98.80
2024-01-05T11:49:35.988Z,99.04
2024-01-05T11:52:24.360Z,98.72
2024-01-05T11:55:14.147Z,98.69
2024-01-05T11:58:00.939Z,98.73
2024-01-05T12:00:51.760Z,98.51
2024-01-05T12:03:39.973Z,98.31
2024-01-05T12:06:26.793Z,98.69
2024-01-05T12:09:13.510Z,98.90
2024-01-05T12:12:17.366Z,99.46
2024-01-05T12:15:10.359Z,99.61
2024-01-05T12:18:04.813Z,99.94
2024-01-05T12:21:01.644Z,99.97
2024-01-05T12:23:53.171Z,100.00
2024-01-05T12:26:40.779Z,100.00
2024-01-05T12:29:27.670Z,100.00
2024-01-05T12:32:14.479Z,100.00
2024-01-05T12:35:02.331Z,100.00
2024-01-05T12:37:53.647Z,100.00
2024-01-05T12:40:40.624Z,100.00
2024-01-05T12:43:27.282Z,100.00
2024-01-05T12:46:14.198Z,100.00
2024-01-05T12:49:18.231Z,100.00
2024-01-05T12:52:09.114Z,100.00
2024-01-05T12:54:55.767Z,100.00
2024-01-05T12:57:42.496Z,100.00
2024-01-05T13:00:29.893Z,100.00
2024-01-05T13:03:17.790Z,100.00
2024-01-05T13:06:09.226Z,100.00
2024-01-05T13:08:56.775Z,100.00
2024-01-05T13:11:51.739Z,100.00
2024-01-05T13:14:41.271Z,100.00
2024-01-05T13:17:28.016Z,100.00
2024-01-05T13:20:15.925Z,100.00
2024-01-05T13:23:02.619Z,100.00
2024-01-05T13:25:49.357Z,99.93
2024-01-05T13:28:38.908Z,99.95
2024-01-05T13:31:25.738Z,99.58
2024-01-05T13:34:12.703Z,99.00
2024-01-05T13:37:02.374Z,99.08
2024-01-05T13:39:49.020Z,99.10
2024-01-05T13:42:35.883Z,99.38
2024-01-05T13:45:22.627Z,99.45
2024-01-05T13:48:09.366Z,99.09
2024-01-05T13:50:56.087Z,99.26
2024-01-05T13:53:42.779Z,98.87
2024-01-05T13:56:31.489Z,98.99
2024-01-05T13:59:18.181Z,98.61
2024-01-05T14:02:05.040Z,98.66
2024-01-05T14:04:52.189Z,98.97
2024-01-05T14:07:41.598Z,98.77
2024-01-05T14:10:28.280Z,98.91
2024-01-05T14:13:14.958Z,98.80
2024-01-05T14:16:01.676Z,98.61
2024-01-05T14:18:48.598Z,98.45
2024-01-05T14:21:35.956Z,100.00
2024-01-05T14:24:25.546Z,100.00
2024-01-05T14:27:12.373Z,100.00
2024-01-05T14:29:59.522Z,99.40
2024-01-05T14:32:46.442Z,98.69
2024-01-05T14:35:33.165Z,98.42
2024-01-05T14:38:19.870Z,98.03
2024-01-05T14:41:07.083Z,97.75
2024-01-05T14:43:53.808Z,97.36
2024-01-05T14:46:40.450Z,97.05
2024-01-05T14:49:27.342Z,96.93
2024-01-05T14:52:15.146Z,96.88
2024-01-05T14:55:02.536Z,96.66
2024-01-05T14:57:49.268Z,96.56
2024-01-05T15:00:36.026Z,96.54
2024-01-05T15:03:23.199Z,96.54
2024-01-05T15:06:10.639Z,96.69
2024-01-05T15:08:57.430Z,96.86
2024-01-05T15:11:44.114Z,97.14
2024-01-05T15:14:33.403Z,97.01
2024-01-05T15:17:20.142Z,97.42
2024-01-05T15:20:07.437Z,97.38
2024-01-05T15:22:54.235Z,97.53
2024-01-05T15:25:41.190Z,97.41
2024-01-05T15:28:29.115Z,97.47
2024-01-05T15:31:22.206Z,97.36
2024-01-05T15:34:09.366Z,97.33
2024-01-05T15:36:56.293Z,97.49
2024-01-05T15:39:43.282Z,97.36
2024-01-05T15:42:30.312Z,97.42
2024-01-05T15:45:17.388Z,97.45
2024-01-05T15:48:04.616Z,97.42
2024-01-05T15:50:51.486Z,97.65
2024-01-05T15:53:38.211Z,97.76
2024-01-05T15:56:24.957Z,97.63
2024-01-05T15:59:13.465Z,97.49
2024-01-05T16:02:00.608Z,97.60
2024-01-05T16:04:47.338Z,97.50
2024-01-05T16:07:35.937Z,97.44
2024-01-05T16:10:22.705Z,97.35
2024-01-05T16:13:09.548Z,97.42
2024-01-05T16:16:11.697Z,97.02
2024-01-05T16:18:59.000Z,97.12
2024-01-05T16:21:46.013Z,96.99
2024-01-05T16:24:32.903Z,97.25
2024-01-05T16:27:19.546Z,97.00
2024-01-05T16:30:07.516Z,97.08
2024-01-05T16:32:54.370Z,96.97
2024-01-05T16:35:41.270Z,97.12
2024-01-05T16:38:28.280Z,97.10
2024-01-05T16:41:16.486Z,97.24
2024-01-05T16:44:03.507Z,97.01
2024-01-05T16:46:53.034Z,97.08
2024-01-05T16:49:39.844Z,96.85
2024-01-05T16:52:29.091Z,96.96
2024-01-05T16:55:15.887Z,96.95
2024-01-05T16:58:40.696Z,97.05
2024-01-05T17:01:33.418Z,97.02
2024-01-05T17:04:23.868Z,97.28
2024-01-05T17:07:11.161Z,97.25
2024-01-05T17:09:58.022Z,97.20
2024-01-05T17:12:45.115Z,97.30
2024-01-05T17:15:32.155Z,97.17
2024-01-05T17:18:19.192Z,97.06
2024-01-05T17:21:10.097Z,97.02
2024-01-05T17:23:56.990Z,97.24
2024-01-05T17:26:43.943Z,97.01
2024-01-05T17:29:34.094Z,97.18
2024-01-05T17:32:21.727Z,97.30
2024-01-05T17:35:09.608Z,97.16
2024-01-05T17:37:57.029Z,97.57
2024-01-05T17:40:44.988Z,97.59
2024-01-05T17:43:31.973Z,97.64
2024-01-05T17:46:18.851Z,97.60
2024-01-05T17:49:05.690Z,97.62
2024-01-05T17:51:52.771Z,97.46
2024-01-05T17:54:40.984Z,97.64
2024-01-05T17:57:27.860Z,97.50
2024-01-05T17:59:54.628Z,97.86
2024-01-05T18:02:21.377Z,97.80
2024-01-05T18:04:48.315Z,97.62
2024-01-05T18:07:17.893Z,97.68
2024-01-05T18:09:44.834Z,97.79
2024-01-05T18:12:11.883Z,97.72
2024-01-05T18:14:41.034Z,97.68
2024-01-05T18:17:08.054Z,97.33
2024-01-05T18:19:35.317Z,97.35
2024-01-05T18:22:02.436Z,97.35
2024-01-05T18:24:29.514Z,98.13
2024-01-05T18:26:56.595Z,98.48
2024-01-05T18:29:28.943Z,98.86
2024-01-05T18:32:00.202Z,97.97
2024-01-05T18:34:27.785Z,97.95
2024-01-05T18:36:55.356Z,97.76
2024-01-05T18:39:22.525Z,97.30
2024-01-05T18:41:49.982Z,97.65
2024-01-05T18:44:16.924Z,97.55
2024-01-05T18:46:44.033Z,97.54
2024-01-05T18:49:11.461Z,97.31
2024-01-05T18:51:38.599Z,97.58
2024-01-05T18:54:07.362Z,97.46
2024-01-05T18:56:34.676Z,97.47
2024-01-05T18:59:03.097Z,97.32
2024-01-05T19:01:31.004Z,97.08
2024-01-05T19:03:58.584Z,96.89
2024-01-05T19:06:25.901Z,96.80
2024-01-05T19:08:53.067Z,97.07
2024-01-05T19:11:20.134Z,97.07
2024-01-05T19:13:46.956Z,97.48
2024-01-05T19:16:14.220Z,97.07
2024-01-05T19:18:41.724Z,97.10
2024-01-05T19:21:11.437Z,97.41
2024-01-05T19:23:38.311Z,97.50
2024-01-05T19:26:05.367Z,97.56
2024-01-05T19:28:32.151Z,96.97
2024-01-05T19:30:59.230Z,96.74
2024-01-05T19:33:26.324Z,96.59
2024-01-05T19:35:53.256Z,96.36
2024-01-05T19:38:20.080Z,96.63
2024-01-05T19:40:47.308Z,96.42
2024-01-05T19:43:15.597Z,96.60
2024-01-05T19:45:42.636Z,96.69
2024-01-05T19:48:09.879Z,96.91
2024-01-05T19:50:38.393Z,97.00
2024-01-05T19:53:05.906Z,97.08
2024-01-05T19:55:33.427Z,96.81
2024-01-05T19:58:00.983Z,97.37
2024-01-05T20:00:46.858Z,96.89
2024-01-05T20:03:16.732Z,96.73
2024-01-05T20:05:43.713Z,96.43
2024-01-05T20:08:10.676Z,96.79
2024-01-05T20:10:37.555Z,96.92
2024-01-05T20:13:08.053Z,97.36
2024-01-05T20:15:36.332Z,96.92
2024-01-05T20:18:20.222Z,96.87
2024-01-05T20:20:47.093Z,97.30
2024-01-05T20:23:15.065Z,97.15
2024-01-05T20:25:42.024Z,97.05
2024-01-05T20:28:08.869Z,97.07
2024-01-05T20:30:37.126Z,96.83
2024-01-05T20:33:04.666Z,97.08
2024-01-05T20:35:31.797Z,97.08
2024-01-05T20:37:58.543Z,96.56
2024-01-05T20:40:25.379Z,96.62
2024-01-05T20:42:52.321Z,96.52
2024-01-05T20:45:19.242Z,96.30
2024-01-05T20:47:46.276Z,96.16
2024-01-05T20:50:13.744Z,96.24
2024-01-05T20:52:41.301Z,96.32
2024-01-05T20:55:08.609Z,96.35
2024-01-05T20:57:36.045Z,96.69
2024-01-05T21:00:02.985Z,96.56
2024-01-05T21:02:30.589Z,96.12
2024-01-05T21:04:57.527Z,96.52
2024-01-05T21:07:25.745Z,96.24
2024-01-05T21:09:55.333Z,95.73
2024-01-05T21:12:23.066Z,95.79
2024-01-05T21:14:49.964Z,95.61
2024-01-05T21:17:16.720Z,95.80
2024-01-05T21:19:43.660Z,96.22
2024-01-05T21:22:10.680Z,95.50
2024-01-05T21:24:44.762Z,95.27
2024-01-05T21:27:13.696Z,95.59
2024-01-05T21:29:46.482Z,95.84
2024-01-05T21:32:16.933Z,96.49
2024-01-05T21:34:44.678Z,95.92
2024-01-05T21:37:14.449Z,96.11
2024-01-05T21:39:44.640Z,95.69
2024-01-05T21:42:12.104Z,95.53
2024-01-05T21:44:40.256Z,95.27
2024-01-05T21:47:07.091Z,95.44
2024-01-05T21:49:36.781Z,95.63
2024-01-05T21:52:04.371Z,95.57
2024-01-05T21:54:31.309Z,95.47
2024-01-05T21:56:59.268Z,94.88
2024-01-05T21:59:26.632Z,95.26
2024-01-05T22:01:56.416Z,95.21
2024-01-05T22:04:24.251Z,96.02
2024-01-05T22:06:51.285Z,96.25
2024-01-05T22:09:19.970Z,96.03
2024-01-05T22:11:47.130Z,95.84
2024-01-05T22:14:15.016Z,95.61
2024-01-05T22:16:42.634Z,95.59
2024-01-05T22:19:12.520Z,95.33
2024-01-05T22:21:42.194Z,94.83
2024-01-05T22:24:09.108Z,95.13
2024-01-05T22:26:36.191Z,94.55
2024-01-05T22:29:04.326Z,94.97
2024-01-05T22:31:32.087Z,95.12
2024-01-05T22:33:59.558Z,95.24
2024-01-05T22:36:26.732Z,95.05
2024-01-05T22:38:53.550Z,94.96
2024-01-05T22:41:22.740Z,95.14
2024-01-05T22:43:49.569Z,95.30
2024-01-05T22:46:18.348Z,95.32
2024-01-05T22:48:47.415Z,95.31
2024-01-05T22:51:25.550Z,94.58
2024-01-05T22:53:53.711Z,96.03
2024-01-05T22:56:21.135Z,95.87
2024-01-05T22:58:47.893Z,96.28
2024-01-05T23:01:21.380Z,95.24
2024-01-05T23:03:49.069Z,95.54
2024-01-05T23:06:16.647Z,95.61
2024-01-05T23:08:43.742Z,95.76
2024-01-05T23:11:11.211Z,96.31
2024-01-05T23:13:38.558Z,96.28
2024-01-05T23:16:07.801Z,95.09
2024-01-05T23:18:35.012Z,95.01
2024-01-05T23:21:02.087Z,95.07
2024-01-05T23:23:28.855Z,95.03
2024-01-05T23:25:55.632Z,95.45
2024-01-05T23:28:22.462Z,95.81
2024-01-05T23:30:49.843Z,95.29
2024-01-05T23:33:18.762Z,94.82
2024-01-05T23:35:45.713Z,94.50
2024-01-05T23:38:12.519Z,94.98
2024-01-05T23:40:39.345Z,94.68
2024-01-05T23:43:06.197Z,95.05
2024-01-05T23:45:33.092Z,95.29
2024-01-05T23:48:00.003Z,94.87
2024-01-05T23:50:26.827Z,94.66
2024-01-05T23:52:54.854Z,94.81
2024-01-05T23:55:22.951Z,94.81
2024-01-05T23:57:49.845Z,96.81
